createdAt,value
2019-03-12T00:02:00.520Z,7.20
2019-03-12T00:04:26.688Z,7.20
2019-03-12T00:06:52.829Z,7.30
2019-03-12T00:09:19.104Z,7.30
2019-03-12T00:11:45.632Z,7.30
2019-03-12T00:14:11.786Z,7.30
2019-03-12T00:16:37.925Z,7.30
2019-03-12T00:19:04.106Z,7.30
2019-03-12T00:21:30.249Z,7.30
2019-03-12T00:23:56.621Z,7.40
2019-03-12T00:26:23.119Z,7.40
2019-03-12T00:28:49.290Z,7.40
2019-03-12T00:31:15.437Z,7.40
2019-03-12T00:33:41.627Z,7.40
2019-03-12T00:36:07.780Z,7.40
2019-03-12T00:38:33.970Z,7.40
2019-03-12T00:41:00.126Z,7.40
2019-03-12T00:43:26.290Z,7.40
2019-03-12T00:45:52.426Z,7.40
2019-03-12T00:48:18.607Z,7.40
2019-03-12T00:50:44.745Z,7.40
2019-03-12T00:53:10.885Z,7.40
2019-03-12T00:55:37.050Z,7.40
2019-03-12T00:58:03.497Z,7.40
2019-03-12T01:00:29.669Z,7.40
2019-03-12T01:02:55.897Z,7.50
2019-03-12T01:05:22.082Z,7.50
2019-03-12T01:07:48.278Z,7.50
2019-03-12T01:10:14.569Z,7.50
2019-03-12T01:12:40.812Z,7.50
2019-03-12T01:15:12.526Z,7.50
2019-03-12T01:17:38.663Z,7.40
2019-03-12T01:20:09.250Z,7.40
2019-03-12T01:22:35.422Z,7.40
2019-03-12T01:25:01.849Z,7.40
2019-03-12T01:27:27.993Z,7.40
2019-03-12T01:29:54.166Z,7.40
2019-03-12T01:32:20.668Z,7.40
2019-03-12T01:34:46.839Z,7.50
2019-03-12T01:37:12.979Z,7.50
2019-03-12T01:39:39.159Z,7.50
2019-03-12T01:42:05.322Z,7.50
2019-03-12T01:44:31.523Z,7.50
2019-03-12T01:46:57.666Z,7.50
2019-03-12T01:49:23.843Z,7.50
2019-03-12T01:51:50.242Z,7.50
2019-03-12T01:54:16.445Z,7.50
2019-03-12T01:56:42.589Z,7.50
2019-03-12T01:59:08.754Z,7.50
2019-03-12T02:01:34.986Z,7.50
2019-03-12T02:04:01.190Z,7.50
2019-03-12T02:06:27.330Z,7.50
2019-03-12T02:08:53.608Z,7.50
2019-03-12T02:11:19.778Z,7.50
2019-03-12T02:13:45.915Z,7.50
2019-03-12T02:16:12.081Z,7.50
2019-03-12T02:18:38.261Z,7.60
2019-03-12T02:21:04.432Z,7.60
2019-03-12T02:23:30.569Z,7.60
2019-03-12T02:25:56.749Z,7.60
2019-03-12T02:28:22.893Z,7.50
2019-03-12T02:30:49.196Z,7.50
2019-03-12T02:33:15.353Z,7.50
2019-03-12T02:35:41.545Z,7.50
2019-03-12T02:38:07.696Z,7.50
2019-03-12T02:40:34.229Z,7.50
2019-03-12T02:43:00.359Z,7.50
2019-03-12T02:45:26.548Z,7.50
2019-03-12T02:47:52.673Z,7.50
2019-03-12T02:50:18.864Z,7.50
2019-03-12T02:52:45.116Z,7.50
2019-03-12T02:55:12.978Z,7.50
2019-03-12T02:57:39.104Z,7.50
2019-03-12T03:00:20.415Z,7.50
2019-03-12T03:02:46.555Z,7.50
2019-03-12T03:05:12.736Z,7.50
2019-03-12T03:07:48.908Z,7.50
2019-03-12T03:10:15.183Z,7.50
2019-03-12T03:12:41.375Z,7.50
2019-03-12T03:15:34.858Z,7.50
2019-03-12T03:18:00.984Z,7.50
2019-03-12T03:20:27.247Z,7.40
2019-03-12T03:22:53.390Z,7.40
2019-03-12T03:25:19.580Z,7.40
2019-03-12T03:27:45.769Z,7.40
2019-03-12T03:30:16.342Z,7.40
2019-03-12T03:32:42.498Z,7.40
2019-03-12T03:35:09.212Z,7.40
2019-03-12T03:37:35.377Z,7.40
2019-03-12T03:40:02.654Z,7.40
2019-03-12T03:42:28.790Z,7.40
2019-03-12T03:44:55.010Z,7.40
2019-03-12T03:47:21.214Z,7.40
2019-03-12T03:49:47.313Z,7.40
2019-03-12T03:52:13.501Z,7.40
2019-03-12T03:54:39.731Z,7.40
2019-03-12T03:57:05.908Z,7.40
2019-03-12T03:59:32.059Z,7.40
2019-03-12T04:01:58.335Z,7.40
2019-03-12T04:04:24.854Z,7.50
2019-03-12T04:06:51.048Z,7.50
2019-03-12T04:09:17.172Z,7.50
2019-03-12T04:11:43.344Z,7.50
2019-03-12T04:14:09.483Z,7.40
2019-03-12T04:16:35.652Z,7.50
2019-03-12T04:19:01.789Z,7.40
2019-03-12T04:21:27.989Z,7.40
2019-03-12T04:23:54.277Z,7.40
2019-03-12T04:26:20.711Z,7.40
2019-03-12T04:28:46.848Z,7.40
2019-03-12T04:31:13.281Z,7.30
2019-03-12T04:33:59.826Z,7.30
2019-03-12T04:36:26.137Z,7.30
2019-03-12T04:38:52.292Z,7.20
2019-03-12T04:41:18.492Z,7.20
2019-03-12T04:43:44.630Z,7.10
2019-03-12T04:46:10.844Z,7.10
2019-03-12T04:48:37.008Z,7.10
2019-03-12T04:51:03.191Z,7.10
2019-03-12T04:53:29.341Z,7.10
2019-03-12T04:55:55.840Z,7.10
2019-03-12T04:58:22.003Z,7.00
2019-03-12T05:00:48.501Z,7.00
2019-03-12T05:03:14.661Z,6.90
2019-03-12T05:05:40.831Z,6.90
2019-03-12T05:08:07.212Z,6.80
2019-03-12T05:10:33.377Z,6.80
2019-03-12T05:12:59.553Z,6.70
2019-03-12T05:15:25.694Z,6.70
2019-03-12T05:17:52.816Z,6.60
2019-03-12T05:20:18.954Z,6.50
2019-03-12T05:22:45.117Z,6.40
2019-03-12T05:25:14.379Z,6.40
2019-03-12T05:27:40.756Z,6.40
2019-03-12T05:30:17.411Z,6.30
2019-03-12T05:32:43.593Z,6.30
2019-03-12T05:35:09.949Z,6.20
2019-03-12T05:37:36.138Z,6.20
2019-03-12T05:40:06.688Z,6.10
2019-03-12T05:42:32.883Z,6.10
2019-03-12T05:44:59.040Z,6.10
2019-03-12T05:47:25.204Z,6.00
2019-03-12T05:49:51.346Z,6.00
2019-03-12T05:52:17.527Z,6.00
2019-03-12T05:54:43.699Z,6.00
2019-03-12T05:57:09.876Z,6.10
2019-03-12T05:59:36.300Z,6.10
2019-03-12T06:02:02.767Z,6.20
2019-03-12T06:04:28.909Z,6.40
2019-03-12T06:06:55.076Z,6.60
2019-03-12T06:09:30.258Z,6.80
2019-03-12T06:11:49.336Z,7.00
2019-03-12T06:14:15.758Z,7.20
2019-03-12T06:16:41.951Z,7.30
2019-03-12T06:19:08.179Z,7.40
2019-03-12T06:21:34.341Z,7.40
2019-03-12T06:24:00.485Z,7.50
2019-03-12T06:26:26.680Z,7.50
2019-03-12T06:28:52.825Z,7.50
2019-03-12T06:31:37.625Z,7.60
2019-03-12T06:34:05.681Z,7.60
2019-03-12T06:36:36.668Z,7.60
2019-03-12T06:39:10.357Z,7.60
2019-03-12T06:41:53.719Z,7.60
2019-03-12T06:44:30.550Z,7.60
2019-03-12T06:46:58.624Z,7.60
2019-03-12T06:49:27.027Z,7.60
2019-03-12T06:52:04.108Z,7.60
2019-03-12T06:54:35.062Z,7.80
2019-03-12T06:57:09.048Z,8.00
2019-03-12T06:59:43.276Z,8.20
2019-03-12T07:02:23.767Z,8.40
2019-03-12T07:04:57.948Z,8.50
2019-03-12T07:07:45.803Z,8.60
2019-03-12T07:10:23.864Z,8.60
2019-03-12T07:12:51.923Z,8.60
2019-03-12T07:15:36.856Z,8.60
2019-03-12T07:18:07.874Z,8.60
2019-03-12T07:20:41.654Z,8.50
2019-03-12T07:23:09.720Z,8.50
2019-03-12T07:25:37.789Z,8.50
2019-03-12T07:28:08.762Z,8.50
2019-03-12T07:30:51.980Z,8.50
2019-03-12T07:33:22.715Z,8.50
2019-03-12T07:36:00.276Z,8.50
2019-03-12T07:38:43.602Z,8.60
2019-03-12T07:41:32.263Z,8.70
2019-03-12T07:44:07.462Z,8.80
2019-03-12T07:46:35.544Z,8.90
2019-03-12T07:49:16.036Z,9.00
2019-03-12T07:51:47.045Z,9.20
2019-03-12T07:54:15.099Z,9.40
2019-03-12T07:57:00.035Z,9.60
2019-03-12T07:59:31.072Z,9.80
2019-03-12T08:02:15.668Z,9.90
2019-03-12T08:04:59.358Z,10.00
2019-03-12T08:10:02.208Z,10.20
2019-03-12T08:12:47.142Z,10.30
2019-03-12T08:15:27.412Z,10.40
2019-03-12T08:18:11.994Z,10.40
2019-03-12T08:20:56.886Z,10.50
2019-03-12T08:23:24.933Z,10.50
2019-03-12T08:25:55.954Z,10.60
2019-03-12T08:28:24.089Z,10.60
2019-03-12T08:30:52.267Z,10.70
2019-03-12T08:33:20.338Z,10.70
2019-03-12T08:35:51.041Z,10.80
2019-03-12T08:38:25.069Z,10.90
2019-03-12T08:40:55.955Z,11.00
2019-03-12T08:43:26.899Z,11.00
2019-03-12T08:45:54.961Z,11.10
2019-03-12T08:48:23.032Z,11.10
2019-03-12T08:50:53.797Z,11.10
2019-03-12T08:53:34.124Z,11.10
2019-03-12T08:56:04.961Z,11.20
2019-03-12T08:58:49.942Z,11.20
2019-03-12T09:01:27.214Z,11.20
2019-03-12T09:03:57.991Z,11.30
2019-03-12T09:06:32.296Z,11.30
2019-03-12T09:09:00.367Z,11.20
2019-03-12T09:11:45.282Z,11.30
2019-03-12T09:14:22.522Z,11.30
2019-03-12T09:16:50.689Z,11.30
2019-03-12T09:19:18.735Z,11.40
2019-03-12T09:21:59.263Z,11.40
2019-03-12T09:24:27.388Z,11.50
2019-03-12T09:26:58.133Z,11.50
2019-03-12T09:29:32.114Z,11.50
2019-03-12T09:32:16.715Z,11.60
2019-03-12T09:34:54.040Z,11.60
2019-03-12T09:37:26.839Z,11.60
2019-03-12T09:40:00.643Z,11.60
2019-03-12T09:42:45.481Z,11.60
2019-03-12T09:45:13.523Z,11.60
2019-03-12T09:47:41.667Z,11.60
2019-03-12T09:50:13.202Z,11.60
2019-03-12T09:52:43.199Z,11.70
2019-03-12T09:55:13.912Z,11.70
2019-03-12T09:57:45.140Z,11.80
2019-03-12T10:00:33.666Z,11.90
2019-03-12T10:03:07.682Z,12.00
2019-03-12T10:05:38.370Z,12.10
2019-03-12T10:08:18.638Z,12.30
2019-03-12T10:10:58.848Z,12.40
2019-03-12T10:13:26.930Z,12.50
2019-03-12T10:16:10.542Z,12.60
2019-03-12T10:18:44.285Z,12.60
2019-03-12T10:21:27.242Z,12.70
2019-03-12T10:24:10.323Z,12.70
2019-03-12T10:26:55.055Z,12.80
2019-03-12T10:29:32.240Z,12.90
2019-03-12T10:32:18.242Z,13.10
2019-03-12T10:34:55.339Z,13.30
2019-03-12T10:37:29.100Z,13.60
2019-03-12T10:40:16.932Z,13.80
2019-03-12T10:42:52.095Z,14.00
2019-03-12T10:45:20.553Z,14.20
2019-03-12T10:47:48.599Z,14.20
2019-03-12T10:50:15.261Z,14.20
2019-03-12T10:52:41.383Z,14.10
2019-03-12T10:55:13.198Z,14.10
2019-03-12T10:57:35.913Z,14.10
2019-03-12T11:00:10.126Z,14.20
2019-03-12T11:02:36.254Z,14.20
2019-03-12T11:05:04.742Z,14.40
2019-03-12T11:07:30.881Z,14.50
2019-03-12T11:09:57.039Z,14.60
2019-03-12T11:12:23.225Z,14.70
2019-03-12T11:14:49.486Z,14.80
2019-03-12T11:17:15.632Z,14.80
2019-03-12T11:19:41.825Z,14.80
2019-03-12T11:22:08.047Z,14.80
2019-03-12T11:24:34.222Z,14.80
2019-03-12T11:27:00.363Z,14.70
2019-03-12T11:29:26.784Z,14.70
2019-03-12T11:31:52.916Z,14.80
2019-03-12T11:34:19.352Z,14.80
2019-03-12T11:36:45.511Z,15.00
2019-03-12T11:39:11.802Z,15.30
2019-03-12T11:41:37.949Z,15.70
2019-03-12T11:44:04.167Z,16.00
2019-03-12T11:46:40.829Z,16.10
2019-03-12T11:48:58.492Z,16.30
2019-03-12T11:51:24.880Z,16.60
2019-03-12T11:53:51.045Z,16.70
2019-03-12T11:56:17.225Z,17.00
2019-03-12T11:58:43.378Z,17.30
2019-03-12T12:01:09.609Z,17.70
2019-03-12T12:03:35.806Z,18.00
2019-03-12T12:06:01.976Z,18.30
2019-03-12T12:08:28.118Z,18.40
2019-03-12T12:10:54.396Z,18.30
2019-03-12T12:13:20.847Z,18.20
2019-03-12T12:15:47.014Z,18.00
2019-03-12T12:18:13.455Z,17.80
2019-03-12T12:20:39.607Z,17.70
2019-03-12T12:23:05.953Z,17.50
2019-03-12T12:25:32.337Z,17.40
2019-03-12T12:27:58.468Z,17.30
2019-03-12T12:30:24.656Z,17.30
2019-03-12T12:32:51.242Z,17.30
2019-03-12T12:35:17.515Z,17.40
2019-03-12T12:37:43.655Z,17.40
2019-03-12T12:40:19.419Z,17.40
2019-03-12T12:42:45.579Z,17.30
2019-03-12T12:45:27.634Z,17.20
2019-03-12T12:47:53.788Z,17.00
2019-03-12T12:50:20.057Z,17.00
2019-03-12T12:52:46.194Z,17.00
2019-03-12T12:55:13.185Z,17.00
2019-03-12T12:57:39.785Z,17.00
2019-03-12T13:00:21.377Z,17.10
2019-03-12T13:02:47.529Z,17.30
2019-03-12T13:05:13.857Z,17.40
2019-03-12T13:07:40.491Z,17.50
2019-03-12T13:10:28.206Z,17.50
2019-03-12T13:12:54.504Z,17.70
2019-03-12T13:15:20.662Z,17.80
2019-03-12T13:17:46.848Z,17.90
2019-03-12T13:20:13.528Z,18.10
2019-03-12T13:22:39.720Z,18.20
2019-03-12T13:25:12.190Z,18.30
2019-03-12T13:27:42.540Z,18.40
2019-03-12T13:30:13.806Z,18.40
2019-03-12T13:32:39.975Z,18.50
2019-03-12T13:35:09.317Z,18.50
2019-03-12T13:37:35.487Z,18.40
2019-03-12T13:40:05.530Z,18.30
2019-03-12T13:42:31.733Z,18.20
2019-03-12T13:44:57.874Z,18.00
2019-03-12T13:47:28.618Z,17.90
2019-03-12T13:49:52.379Z,17.80
2019-03-12T13:52:18.628Z,17.60
2019-03-12T13:54:44.763Z,17.40
2019-03-12T13:57:10.927Z,17.20
2019-03-12T13:59:37.063Z,17.00
2019-03-12T14:02:03.236Z,16.80
2019-03-12T14:04:29.392Z,16.60
2019-03-12T14:06:55.589Z,16.50
2019-03-12T14:09:21.982Z,16.40
2019-03-12T14:11:48.159Z,16.30
2019-03-12T14:14:14.347Z,16.20
2019-03-12T14:16:40.564Z,16.10
2019-03-12T14:19:06.807Z,16.10
2019-03-12T14:21:37.681Z,16.00
2019-03-12T14:24:03.810Z,16.00
2019-03-12T14:26:29.959Z,16.00
2019-03-12T14:28:56.103Z,15.90
2019-03-12T14:31:22.323Z,15.80
2019-03-12T14:33:48.465Z,15.70
2019-03-12T14:36:14.596Z,15.60
2019-03-12T14:38:40.907Z,15.50
2019-03-12T14:41:07.046Z,15.40
2019-03-12T14:43:33.224Z,15.30
2019-03-12T14:45:59.403Z,15.30
2019-03-12T14:48:50.704Z,15.20
2019-03-12T14:51:36.599Z,15.10
2019-03-12T14:54:11.975Z,15.00
2019-03-12T14:56:38.345Z,14.90
2019-03-12T14:59:04.738Z,14.80
2019-03-12T15:01:30.882Z,14.80
2019-03-12T15:03:57.133Z,14.70
2019-03-12T15:06:23.287Z,14.70
2019-03-12T15:08:49.459Z,14.60
2019-03-12T15:11:15.732Z,14.60
2019-03-12T15:13:41.888Z,14.50
2019-03-12T15:16:08.021Z,14.40
2019-03-12T15:18:34.204Z,14.40
2019-03-12T15:21:00.354Z,14.30
2019-03-12T15:23:26.546Z,14.30
2019-03-12T15:25:53.010Z,14.20
2019-03-12T15:28:20.408Z,14.20
2019-03-12T15:30:46.573Z,14.10
2019-03-12T15:33:12.754Z,14.00
2019-03-12T15:35:39.413Z,14.00
2019-03-12T15:38:05.595Z,13.80
2019-03-12T15:40:31.825Z,13.80
2019-03-12T15:42:57.980Z,13.70
2019-03-12T15:45:24.256Z,13.60
2019-03-12T15:47:50.466Z,13.60
2019-03-12T15:50:18.958Z,13.50
2019-03-12T15:52:44.817Z,13.50
2019-03-12T15:55:11.899Z,13.40
2019-03-12T15:57:38.036Z,13.40
2019-03-12T16:00:11.291Z,13.40
2019-03-12T16:02:37.398Z,13.40
2019-03-12T16:05:06.288Z,13.30
2019-03-12T16:07:32.475Z,13.30
2019-03-12T16:09:59.281Z,13.20
2019-03-12T16:12:25.439Z,13.20
2019-03-12T16:14:51.621Z,13.10
2019-03-12T16:17:17.754Z,13.10
2019-03-12T16:19:43.949Z,13.10
2019-03-12T16:22:10.108Z,13.00
2019-03-12T16:24:36.265Z,12.90
2019-03-12T16:27:03.421Z,12.90
2019-03-12T16:29:29.789Z,12.80
2019-03-12T16:31:55.935Z,12.80
2019-03-12T16:34:22.069Z,12.70
2019-03-12T16:36:48.332Z,12.60
2019-03-12T16:39:14.498Z,12.60
2019-03-12T16:41:40.675Z,12.50
2019-03-12T16:44:06.816Z,12.50
2019-03-12T16:46:32.986Z,12.40
2019-03-12T16:48:59.112Z,12.30
2019-03-12T16:51:25.291Z,12.30
2019-03-12T16:53:51.796Z,12.20
2019-03-12T16:56:17.954Z,12.20
2019-03-12T16:58:44.139Z,12.10
2019-03-12T17:01:10.536Z,12.00
2019-03-12T17:03:36.697Z,12.00
2019-03-12T17:06:03.165Z,12.00
2019-03-12T17:08:29.303Z,11.90
2019-03-12T17:11:02.207Z,11.90
2019-03-12T17:13:23.511Z,11.80
2019-03-12T17:15:54.443Z,11.80
2019-03-12T17:18:17.842Z,11.80
2019-03-12T17:20:43.968Z,11.70
2019-03-12T17:23:10.126Z,11.70
2019-03-12T17:25:36.276Z,11.70
2019-03-12T17:28:02.446Z,11.70
2019-03-12T17:30:29.080Z,11.70
2019-03-12T17:32:55.246Z,11.70
2019-03-12T17:35:31.339Z,11.70
2019-03-12T17:37:57.801Z,11.70
2019-03-12T17:40:24.041Z,11.60
2019-03-12T17:42:50.277Z,11.60
2019-03-12T17:45:16.403Z,11.60
2019-03-12T17:47:42.602Z,11.60
2019-03-12T17:50:11.326Z,11.50
2019-03-12T17:52:37.488Z,11.50
2019-03-12T17:55:08.167Z,11.50
2019-03-12T17:57:34.343Z,11.50
2019-03-12T18:00:00.485Z,11.40
2019-03-12T18:02:26.645Z,11.40
2019-03-12T18:04:52.774Z,11.40
2019-03-12T18:07:19.230Z,11.40
2019-03-12T18:09:45.456Z,11.40
2019-03-12T18:12:11.860Z,11.40
2019-03-12T18:14:38.023Z,11.40
2019-03-12T18:17:04.192Z,11.40
2019-03-12T18:19:30.319Z,11.40
2019-03-12T18:21:57.006Z,11.30
2019-03-12T18:24:23.135Z,11.30
2019-03-12T18:26:49.354Z,11.30
2019-03-12T18:29:15.501Z,11.30
2019-03-12T18:31:41.634Z,11.30
2019-03-12T18:34:08.085Z,11.30
2019-03-12T18:36:34.249Z,11.30
2019-03-12T18:39:03.305Z,11.30
2019-03-12T18:41:28.504Z,11.30
2019-03-12T18:43:54.691Z,11.30
2019-03-12T18:46:21.093Z,11.20
2019-03-12T18:48:47.311Z,11.20
2019-03-12T18:51:13.450Z,11.20
2019-03-12T18:53:39.607Z,11.20
2019-03-12T18:56:05.776Z,11.20
2019-03-12T18:58:31.945Z,11.20
2019-03-12T19:01:00.567Z,11.20
2019-03-12T19:03:26.744Z,11.20
2019-03-12T19:05:53.216Z,11.20
2019-03-12T19:08:19.386Z,11.10
2019-03-12T19:10:45.525Z,11.10
2019-03-12T19:13:11.838Z,11.10
2019-03-12T19:15:38.045Z,11.10
2019-03-12T19:18:04.420Z,11.10
2019-03-12T19:20:33.101Z,11.10
2019-03-12T19:22:58.626Z,11.10
2019-03-12T19:25:37.968Z,11.20
2019-03-12T19:28:03.493Z,11.20
2019-03-12T19:30:30.000Z,11.20
2019-03-12T19:32:58.066Z,11.20
2019-03-12T19:35:29.124Z,11.20
2019-03-12T19:37:57.161Z,11.20
2019-03-12T19:40:31.447Z,11.20
2019-03-12T19:42:58.123Z,11.20
2019-03-12T19:45:24.519Z,11.20
2019-03-12T19:47:50.862Z,11.20
2019-03-12T19:50:19.540Z,11.20
2019-03-12T19:52:45.954Z,11.20
2019-03-12T19:55:44.556Z,11.20
2019-03-12T19:58:10.843Z,11.20
2019-03-12T20:00:37.485Z,11.20
2019-03-12T20:03:10.841Z,11.20
2019-03-12T20:05:32.007Z,11.20
2019-03-12T20:07:58.230Z,11.20
2019-03-12T20:10:45.562Z,11.20
2019-03-12T20:14:08.298Z,11.20
2019-03-12T20:17:16.386Z,11.20
2019-03-12T20:20:07.542Z,11.30
2019-03-12T20:23:08.199Z,11.20
2019-03-12T20:26:23.876Z,11.20
2019-03-12T20:29:29.493Z,11.20
2019-03-12T20:32:16.396Z,11.10
2019-03-12T20:35:10.844Z,11.10
2019-03-12T20:38:33.499Z,11.10
2019-03-12T20:41:28.254Z,11.10
2019-03-12T20:44:40.246Z,11.10
2019-03-12T20:47:30.465Z,11.00
2019-03-12T20:50:20.565Z,11.00
2019-03-12T20:53:15.155Z,11.00
2019-03-12T20:56:24.811Z,11.00
2019-03-12T20:59:26.375Z,11.00
2019-03-12T21:02:41.427Z,11.00
2019-03-12T21:05:59.103Z,11.00
2019-03-12T21:09:22.117Z,11.00
2019-03-12T21:12:11.959Z,11.00
2019-03-12T21:15:05.635Z,10.90
2019-03-12T21:17:52.854Z,10.90
2019-03-12T21:21:02.329Z,10.90
2019-03-12T21:24:01.480Z,10.90
2019-03-12T21:27:02.799Z,10.90
2019-03-12T21:29:45.716Z,10.90
2019-03-12T21:32:14.183Z,10.80
2019-03-12T21:34:40.619Z,10.80
2019-03-12T21:37:07.012Z,10.90
2019-03-12T21:39:33.706Z,10.90
2019-03-12T21:42:00.578Z,10.90
2019-03-12T21:44:27.454Z,10.90
2019-03-12T21:46:54.126Z,10.90
2019-03-12T21:49:20.330Z,10.90
2019-03-12T21:51:46.600Z,10.90
2019-03-12T21:54:13.038Z,10.90
2019-03-12T21:56:39.220Z,10.90
2019-03-12T21:59:05.830Z,10.90
2019-03-12T22:01:32.168Z,10.90
2019-03-12T22:03:58.299Z,10.90
2019-03-12T22:06:24.469Z,10.90
2019-03-12T22:08:50.642Z,10.90
2019-03-12T22:11:17.187Z,10.90
2019-03-12T22:13:43.348Z,10.90
2019-03-12T22:16:09.497Z,10.80
2019-03-12T22:18:35.629Z,10.80
2019-03-12T22:21:01.812Z,10.80
2019-03-12T22:23:32.994Z,10.80
2019-03-12T22:25:59.389Z,10.80
2019-03-12T22:28:25.547Z,10.80
2019-03-12T22:30:52.262Z,10.80
2019-03-12T22:33:18.499Z,10.80
2019-03-12T22:35:44.641Z,10.80
2019-03-12T22:38:11.090Z,10.80
2019-03-12T22:40:37.507Z,10.70
2019-03-12T22:43:03.662Z,10.70
2019-03-12T22:45:29.818Z,10.70
2019-03-12T22:47:55.976Z,10.70
2019-03-12T22:50:22.149Z,10.70
2019-03-12T22:52:48.294Z,10.70
2019-03-12T22:55:14.451Z,10.70
2019-03-12T22:57:40.969Z,10.70
2019-03-12T23:00:13.676Z,10.70
2019-03-12T23:02:39.893Z,10.70
2019-03-12T23:05:08.873Z,10.70
2019-03-12T23:07:35.043Z,10.70
2019-03-12T23:10:04.190Z,10.70
2019-03-12T23:12:30.647Z,10.70
2019-03-12T23:14:57.231Z,10.80
2019-03-12T23:17:23.379Z,10.80
2019-03-12T23:19:49.630Z,10.90
2019-03-12T23:22:16.002Z,11.00
2019-03-12T23:24:42.149Z,11.00
2019-03-12T23:27:08.281Z,11.10
2019-03-12T23:29:34.439Z,11.20
2019-03-12T23:32:00.673Z,11.20
2019-03-12T23:34:26.832Z,11.30
2019-03-12T23:36:53.312Z,11.30
2019-03-12T23:39:19.525Z,11.40
2019-03-12T23:41:45.633Z,11.40
2019-03-12T23:44:11.798Z,11.40
2019-03-12T23:46:37.971Z,11.50
2019-03-12T23:49:04.128Z,11.50
2019-03-12T23:51:30.281Z,11.60
2019-03-12T23:53:56.431Z,11.60
2019-03-12T23:56:22.575Z,11.60
2019-03-12T23:58:48.771Z,11.60
